Time;durP1;ratioP1;P1;durP2;ratioP2;P2;SDS_P1;SDS_P2;PMS_P1;PMS_P2;Temp;Humidity;BMP_temperature;BMP_pressure;BME280_temperature;BME280_humidity;BME280_pressure;Samples;Min_cycle;Max_cycle;Signal;HPM_P1;HPM_P2
2023/06/15 00:00:42;;;;;;;3.67;2.40;;;20.70;73.40;;;;;;5075000;28;20174;-66
2023/06/15 00:03:08;;;;;;;2.42;2.20;;;20.70;73.20;;;;;;5075005;28;20175;-66
2023/06/15 00:05:33;;;;;;;3.35;1.90;;;20.70;73.60;;;;;;5074916;28;20201;-66
2023/06/15 00:07:59;;;;;;;4.18;2.28;;;20.70;73.70;;;;;;5075102;28;20182;-66
2023/06/15 00:10:25;;;;;;;3.83;2.30;;;20.60;74.00;;;;;;5075230;28;20202;-66
2023/06/15 00:12:50;;;;;;;4.05;2.60;;;20.60;74.50;;;;;;5075089;28;20185;-64
2023/06/15 00:15:17;;;;;;;2.88;2.58;;;20.60;73.70;;;;;;5074986;28;20166;-65
2023/06/15 00:17:43;;;;;;;2.72;2.20;;;20.50;74.50;;;;;;5074721;28;20229;-65
2023/06/15 00:20:12;;;;;;;2.30;2.10;;;20.50;75.10;;;;;;5074637;28;20186;-66
2023/06/15 00:22:40;;;;;;;4.95;2.60;;;20.50;74.50;;;;;;5074701;28;20263;-67
2023/06/15 00:25:06;;;;;;;3.08;2.50;;;20.60;74.10;;;;;;5074646;28;20593;-66
2023/06/15 00:27:34;;;;;;;3.53;2.38;;;20.60;74.20;;;;;;5074555;28;20171;-66
2023/06/15 00:29:59;;;;;;;2.20;2.00;;;20.50;74.40;;;;;;5074297;28;20237;-65
2023/06/15 00:32:25;;;;;;;2.97;2.35;;;20.50;75.20;;;;;;5074612;28;20678;-65
2023/06/15 00:34:51;;;;;;;3.42;2.45;;;20.40;75.10;;;;;;5074252;28;20654;-65
2023/06/15 00:37:16;;;;;;;2.65;2.20;;;20.50;75.10;;;;;;5074386;28;20210;-65
2023/06/15 00:39:42;;;;;;;4.40;2.63;;;20.40;75.30;;;;;;5074360;28;20207;-65
2023/06/15 00:42:08;;;;;;;2.83;2.47;;;20.40;75.60;;;;;;5074458;28;20174;-66
2023/06/15 00:44:33;;;;;;;3.75;2.40;;;20.30;75.20;;;;;;5074224;28;20175;-65
2023/06/15 00:46:59;;;;;;;2.83;2.30;;;20.30;76.00;;;;;;5074102;28;20298;-65
2023/06/15 00:49:26;;;;;;;3.10;2.50;;;20.30;76.10;;;;;;5074300;28;20238;-66
2023/06/15 00:51:52;;;;;;;2.33;2.13;;;20.10;76.40;;;;;;5074201;28;20167;-65
2023/06/15 00:54:22;;;;;;;4.10;2.30;;;20.20;76.10;;;;;;5073258;28;20528;-65
2023/06/15 00:56:49;;;;;;;2.92;2.47;;;20.20;76.10;;;;;;5073943;28;20167;-66
2023/06/15 00:59:15;;;;;;;3.15;2.30;;;20.10;76.60;;;;;;5073850;28;20179;-65
2023/06/15 01:01:44;;;;;;;2.75;2.47;;;20.10;76.60;;;;;;5072516;28;20181;-65
2023/06/15 01:04:10;;;;;;;3.83;2.20;;;20.20;76.20;;;;;;5073932;28;20509;-66
2023/06/15 01:06:41;;;;;;;3.83;2.58;;;20.10;76.90;;;;;;5073686;28;20172;-66
2023/06/15 01:09:09;;;;;;;3.13;2.40;;;20.00;76.70;;;;;;5073689;28;20210;-65
2023/06/15 01:11:35;;;;;;;3.20;2.55;;;20.10;76.70;;;;;;5073718;28;20175;-65
2023/06/15 01:14:03;;;;;;;3.00;2.53;;;19.90;76.60;;;;;;5073651;28;20181;-66
2023/06/15 01:16:38;;;;;;;2.45;2.22;;;20.00;76.80;;;;;;5073486;28;20186;-66
2023/06/15 01:19:09;;;;;;;3.70;2.90;;;20.00;76.90;;;;;;5073735;28;20666;-66
2023/06/15 01:21:35;;;;;;;3.70;2.90;;;19.90;77.10;;;;;;5073952;28;20265;-65
2023/06/15 01:24:24;;;;;;;3.45;2.63;;;19.80;77.70;;;;;;5073520;28;20174;-65
2023/06/15 01:26:51;;;;;;;3.33;2.47;;;19.70;78.10;;;;;;5073428;28;20174;-66
2023/06/15 01:29:19;;;;;;;5.15;2.80;;;19.60;78.30;;;;;;5073524;28;20209;-66
2023/06/15 01:31:46;;;;;;;5.22;2.50;;;19.60;78.30;;;;;;5073363;28;20182;-66
2023/06/15 01:34:12;;;;;;;4.60;2.67;;;19.60;78.40;;;;;;5073622;28;20651;-66
2023/06/15 01:36:37;;;;;;;5.60;2.30;;;19.60;78.60;;;;;;5073388;28;20175;-66
2023/06/15 01:39:05;;;;;;;3.35;2.42;;;19.60;78.80;;;;;;5073242;28;20174;-65
2023/06/15 01:41:33;;;;;;;2.67;2.42;;;19.50;79.20;;;;;;5073116;28;20248;-66
2023/06/15 01:43:59;;;;;;;5.20;2.80;;;19.50;79.20;;;;;;5073403;28;20178;-66
2023/06/15 01:46:26;;;;;;;7.10;2.88;;;19.50;78.80;;;;;;5073558;28;20269;-66
2023/06/15 01:48:53;;;;;;;3.25;2.70;;;19.50;79.40;;;;;;5073044;28;20226;-65
2023/06/15 01:51:20;;;;;;;3.25;2.72;;;19.40;79.00;;;;;;5073167;28;20178;-65
2023/06/15 01:53:46;;;;;;;3.83;2.90;;;19.40;78.70;;;;;;5073120;28;20647;-65
2023/06/15 01:56:13;;;;;;;3.17;2.85;;;19.30;78.90;;;;;;5073066;28;20209;-65
2023/06/15 01:58:39;;;;;;;3.53;2.78;;;19.30;79.30;;;;;;5073261;28;20189;-65
2023/06/15 02:01:05;;;;;;;3.38;3.08;;;19.30;79.30;;;;;;5073238;28;20178;-65
2023/06/15 02:03:31;;;;;;;4.78;2.78;;;19.40;79.30;;;;;;5073110;28;20578;-66
2023/06/15 02:05:57;;;;;;;3.35;2.85;;;19.30;79.80;;;;;;5075719;28;20187;-66
2023/06/15 02:08:22;;;;;;;3.17;2.80;;;19.30;79.50;;;;;;5077024;28;20182;-66
2023/06/15 02:10:48;;;;;;;4.50;2.70;;;19.30;80.20;;;;;;5077045;28;20201;-65
2023/06/15 02:13:14;;;;;;;4.20;2.60;;;19.20;80.00;;;;;;5077250;28;20202;-66
2023/06/15 02:15:40;;;;;;;3.17;2.72;;;19.20;80.40;;;;;;5076952;28;20171;-65
2023/06/15 02:18:11;;;;;;;4.38;3.20;;;19.20;80.10;;;;;;5077035;28;20175;-65
2023/06/15 02:20:39;;;;;;;5.40;3.08;;;19.20;80.40;;;;;;5076952;28;20182;-65
2023/06/15 02:23:05;;;;;;;4.50;2.88;;;19.10;80.20;;;;;;5076761;28;20181;-65
2023/06/15 02:25:31;;;;;;;6.03;2.90;;;19.10;80.60;;;;;;5076653;28;20171;-65
2023/06/15 02:27:59;;;;;;;3.97;3.10;;;19.10;80.90;;;;;;5076927;28;20178;-66
2023/06/15 02:30:25;;;;;;;3.50;2.70;;;18.90;80.60;;;;;;5076786;28;20695;-66
2023/06/15 02:32:53;;;;;;;3.60;2.70;;;18.90;81.30;;;;;;5076771;28;20269;-65
2023/06/15 02:35:20;;;;;;;3.40;2.80;;;18.90;81.40;;;;;;5076565;28;20661;-65
2023/06/15 02:37:46;;;;;;;3.30;3.00;;;18.90;81.40;;;;;;5076460;28;20283;-66
2023/06/15 02:40:12;;;;;;;3.30;3.00;;;18.80;81.50;;;;;;5076664;28;20186;-66
2023/06/15 02:42:38;;;;;;;5.72;3.38;;;18.90;81.60;;;;;;5076569;28;20170;-65
2023/06/15 02:45:06;;;;;;;4.35;3.00;;;19.00;81.40;;;;;;5076541;28;20171;-65
2023/06/15 02:47:35;;;;;;;4.35;3.20;;;18.80;81.90;;;;;;5076232;28;20627;-65
2023/06/15 02:50:02;;;;;;;4.63;3.05;;;18.90;82.00;;;;;;5076300;28;20285;-65
2023/06/15 02:52:30;;;;;;;3.67;2.63;;;18.90;82.20;;;;;;5076197;28;20175;-65
2023/06/15 02:54:57;;;;;;;3.17;2.83;;;18.80;81.90;;;;;;5076337;28;20174;-65
2023/06/15 02:57:23;;;;;;;4.45;2.83;;;18.80;82.40;;;;;;5076336;28;20189;-65
2023/06/15 02:59:49;;;;;;;4.68;3.25;;;18.80;82.50;;;;;;5076207;28;20266;-65
2023/06/15 03:02:15;;;;;;;5.38;3.10;;;18.70;82.30;;;;;;5076158;28;20203;-64
2023/06/15 03:04:48;;;;;;;4.28;3.13;;;18.70;82.50;;;;;;5076066;28;20162;-65
2023/06/15 03:07:16;;;;;;;3.95;3.33;;;18.80;83.00;;;;;;5076281;28;20179;-65
2023/06/15 03:09:46;;;;;;;4.20;3.20;;;18.70;82.90;;;;;;5075808;28;20667;-66
2023/06/15 03:12:12;;;;;;;4.50;2.92;;;18.70;82.90;;;;;;5075910;28;20639;-65
2023/06/15 03:14:38;;;;;;;7.03;3.40;;;18.70;83.50;;;;;;5075953;28;20178;-63
2023/06/15 03:17:09;;;;;;;7.72;3.28;;;18.60;83.50;;;;;;5075120;28;20624;-64
2023/06/15 03:19:36;;;;;;;4.93;3.20;;;18.60;83.80;;;;;;5075786;28;20182;-65
2023/06/15 03:22:02;;;;;;;6.43;3.45;;;18.50;83.60;;;;;;5075828;28;20252;-65
2023/06/15 03:24:30;;;;;;;3.92;3.17;;;18.50;83.70;;;;;;5075710;28;20163;-65
2023/06/15 03:26:57;;;;;;;3.67;2.95;;;18.50;84.00;;;;;;5075749;28;20175;-65
2023/06/15 03:29:26;;;;;;;5.15;3.58;;;18.40;84.00;;;;;;5075480;28;20734;-65
2023/06/15 03:31:53;;;;;;;4.55;3.20;;;18.50;84.50;;;;;;5075438;28;20178;-65
2023/06/15 03:34:19;;;;;;;6.32;3.45;;;18.40;84.90;;;;;;5075644;28;20174;-65
2023/06/15 03:36:44;;;;;;;4.20;3.38;;;18.40;84.70;;;;;;5075721;28;20185;-65
2023/06/15 03:39:11;;;;;;;4.43;3.40;;;18.40;84.50;;;;;;5075530;28;20182;-65
2023/06/15 03:41:37;;;;;;;3.63;3.20;;;18.40;84.90;;;;;;5075425;28;20175;-65
2023/06/15 03:44:03;;;;;;;6.03;3.28;;;18.40;85.10;;;;;;5075322;28;20240;-65
2023/06/15 03:46:29;;;;;;;4.13;3.10;;;18.30;85.10;;;;;;5075134;28;20185;-65
2023/06/15 03:48:55;;;;;;;4.50;3.25;;;18.30;85.30;;;;;;5075526;28;20330;-65
2023/06/15 03:51:21;;;;;;;4.55;3.17;;;18.20;85.30;;;;;;5075362;28;20628;-65
2023/06/15 03:53:47;;;;;;;3.70;3.17;;;18.20;85.70;;;;;;5075332;28;20215;-66
2023/06/15 03:56:13;;;;;;;4.63;3.40;;;18.20;86.00;;;;;;5075105;28;20227;-65
2023/06/15 03:58:38;;;;;;;3.90;3.22;;;18.20;85.80;;;;;;5075068;28;20175;-64
2023/06/15 04:01:07;;;;;;;3.83;2.90;;;18.20;86.00;;;;;;5075061;28;20387;-64
2023/06/15 04:03:36;;;;;;;3.92;3.30;;;18.20;86.30;;;;;;5075259;28;20167;-65
2023/06/15 04:06:04;;;;;;;3.60;3.28;;;18.20;86.90;;;;;;5074815;28;20189;-65
2023/06/15 04:08:31;;;;;;;4.60;3.33;;;18.20;86.70;;;;;;5074827;28;20339;-65
2023/06/15 04:10:57;;;;;;;8.40;3.70;;;18.10;86.80;;;;;;5074916;28;20171;-65
2023/06/15 04:13:23;;;;;;;4.05;3.60;;;18.10;86.70;;;;;;5074810;28;20240;-65
2023/06/15 04:15:52;;;;;;;4.95;3.33;;;18.20;86.90;;;;;;5074676;28;20174;-65
2023/06/15 04:18:18;;;;;;;4.35;3.70;;;18.20;86.80;;;;;;5074785;28;20224;-64
2023/06/15 04:20:44;;;;;;;5.05;3.70;;;18.20;87.10;;;;;;5074797;28;20171;-64
2023/06/15 04:23:10;;;;;;;5.63;3.70;;;18.20;87.60;;;;;;5074665;28;20710;-64
2023/06/15 04:25:37;;;;;;;4.10;3.42;;;18.30;87.80;;;;;;5074521;28;20639;-64
2023/06/15 04:28:05;;;;;;;4.40;3.55;;;18.30;87.10;;;;;;5073776;28;20670;-64
2023/06/15 04:30:32;;;;;;;5.57;3.83;;;18.30;87.40;;;;;;5074180;28;20269;-65
2023/06/15 04:32:59;;;;;;;5.90;3.67;;;18.20;87.20;;;;;;5074317;28;20175;-63
2023/06/15 04:35:31;;;;;;;5.97;4.05;;;18.20;87.70;;;;;;5074458;28;20181;-63
2023/06/15 04:38:00;;;;;;;4.03;3.70;;;18.10;88.10;;;;;;5074211;28;20163;-63
2023/06/15 04:40:26;;;;;;;4.50;4.10;;;18.20;88.50;;;;;;5074179;28;20658;-64
2023/06/15 04:42:53;;;;;;;4.90;4.00;;;18.30;88.20;;;;;;5074110;28;20171;-63
2023/06/15 04:45:19;;;;;;;7.78;4.03;;;18.30;87.70;;;;;;5074266;28;20182;-64
2023/06/15 04:47:45;;;;;;;6.63;3.88;;;18.30;88.00;;;;;;5073997;28;20547;-63
2023/06/15 04:50:13;;;;;;;4.97;3.58;;;18.40;88.30;;;;;;5074134;28;20206;-64
2023/06/15 04:52:40;;;;;;;5.85;4.50;;;18.40;88.40;;;;;;5072759;28;20171;-64
2023/06/15 04:55:06;;;;;;;4.20;3.80;;;18.40;88.10;;;;;;5074033;28;20177;-63
2023/06/15 04:57:32;;;;;;;6.25;4.40;;;18.50;88.50;;;;;;5073768;28;20175;-64
2023/06/15 04:59:58;;;;;;;4.85;4.43;;;18.60;87.80;;;;;;5074083;28;20174;-64
2023/06/15 05:02:23;;;;;;;7.18;4.40;;;18.60;87.80;;;;;;5073923;28;20604;-63
2023/06/15 05:04:49;;;;;;;6.82;4.18;;;18.60;88.60;;;;;;5073815;28;20175;-63
2023/06/15 05:07:15;;;;;;;5.40;4.10;;;18.60;89.50;;;;;;5072514;28;20635;-63
2023/06/15 05:09:41;;;;;;;6.22;4.60;;;18.70;88.80;;;;;;5073627;28;20205;-64
2023/06/15 05:12:07;;;;;;;5.18;4.25;;;18.80;88.30;;;;;;5073536;28;20210;-64
2023/06/15 05:14:33;;;;;;;5.55;3.92;;;18.90;88.50;;;;;;5073725;28;20216;-63
2023/06/15 05:17:03;;;;;;;6.35;4.47;;;19.00;88.30;;;;;;5072658;28;20186;-64
2023/06/15 05:19:29;;;;;;;6.60;4.60;;;19.10;88.50;;;;;;5073594;28;20266;-63
2023/06/15 05:21:59;;;;;;;6.75;4.20;;;19.10;86.90;;;;;;5073503;28;20178;-64
2023/06/15 05:24:25;;;;;;;6.53;3.92;;;19.10;88.20;;;;;;5073417;28;20178;-64
2023/06/15 05:26:50;;;;;;;5.40;4.22;;;19.30;87.70;;;;;;5073638;28;20183;-63
2023/06/15 05:29:16;;;;;;;6.40;4.72;;;19.30;87.60;;;;;;5073517;28;20549;-63
2023/06/15 05:31:42;;;;;;;4.22;3.83;;;19.30;87.50;;;;;;5073485;28;20173;-63
2023/06/15 05:34:07;;;;;;;4.93;4.40;;;19.50;86.80;;;;;;5073475;28;20174;-63
2023/06/15 05:36:34;;;;;;;5.00;4.20;;;19.60;85.90;;;;;;5072170;28;20638;-63
2023/06/15 05:39:00;;;;;;;5.57;4.78;;;19.70;86.00;;;;;;5073244;28;20266;-63
2023/06/15 05:41:25;;;;;;;5.10;4.03;;;19.70;86.40;;;;;;5072848;28;20265;-63
2023/06/15 05:43:51;;;;;;;6.55;4.20;;;19.70;86.00;;;;;;5073495;28;20312;-63
2023/06/15 05:46:17;;;;;;;7.03;4.20;;;19.80;86.80;;;;;;5073465;28;20194;-63
2023/06/15 05:48:43;;;;;;;10.30;4.65;;;20.00;88.00;;;;;;5073160;28;20610;-63
2023/06/15 05:51:09;;;;;;;6.60;4.28;;;20.10;87.20;;;;;;5073174;28;20199;-63
2023/06/15 05:53:35;;;;;;;7.05;4.15;;;20.20;86.40;;;;;;5073163;28;20232;-64
2023/06/15 05:56:01;;;;;;;5.68;3.90;;;20.30;86.00;;;;;;5073110;28;20263;-64
2023/06/15 05:58:26;;;;;;;5.70;4.13;;;20.40;86.00;;;;;;5073273;28;20248;-63
2023/06/15 06:00:52;;;;;;;4.13;3.72;;;20.50;85.30;;;;;;5073233;28;20265;-63
2023/06/15 06:03:17;;;;;;;5.95;4.25;;;20.60;85.30;;;;;;5073090;28;20202;-63
2023/06/15 06:05:43;;;;;;;6.03;3.85;;;20.70;86.10;;;;;;5073441;28;20583;-63
2023/06/15 06:08:09;;;;;;;4.47;3.47;;;20.80;85.20;;;;;;5073056;28;20265;-63
2023/06/15 06:10:34;;;;;;;4.75;3.88;;;20.90;86.00;;;;;;5071604;28;20241;-63
2023/06/15 06:13:00;;;;;;;5.78;4.00;;;21.10;86.20;;;;;;5073147;28;20217;-64
2023/06/15 06:15:26;;;;;;;6.15;4.00;;;21.00;83.40;;;;;;5073178;28;20265;-63
2023/06/15 06:17:52;;;;;;;6.95;3.90;;;21.10;83.70;;;;;;5072977;28;20179;-63
2023/06/15 06:20:18;;;;;;;4.68;3.80;;;21.20;83.90;;;;;;5073080;28;20219;-63
2023/06/15 06:22:44;;;;;;;5.22;3.90;;;21.30;84.50;;;;;;5072877;28;20253;-63
2023/06/15 06:25:11;;;;;;;6.15;4.30;;;21.30;83.30;;;;;;5072724;28;20304;-64
2023/06/15 06:27:36;;;;;;;5.80;3.78;;;21.40;82.80;;;;;;5072989;28;20182;-63
2023/06/15 06:30:02;;;;;;;5.95;3.95;;;21.40;83.00;;;;;;5072856;28;20713;-62
2023/06/15 06:32:28;;;;;;;6.28;4.38;;;21.60;84.20;;;;;;5073123;28;20210;-63
2023/06/15 06:34:53;;;;;;;4.88;4.07;;;21.70;84.10;;;;;;5073016;28;20252;-63
2023/06/15 06:37:19;;;;;;;5.00;4.15;;;21.80;84.30;;;;;;5071636;28;20252;-63
2023/06/15 06:39:45;;;;;;;4.63;3.72;;;21.80;82.30;;;;;;5072701;28;20183;-64
2023/06/15 06:42:11;;;;;;;3.95;3.65;;;21.90;83.50;;;;;;5072964;28;20220;-63
2023/06/15 06:44:37;;;;;;;6.25;3.80;;;22.00;82.20;;;;;;5073057;28;20162;-63
2023/06/15 06:47:03;;;;;;;5.30;4.18;;;22.10;82.50;;;;;;5072957;28;20167;-63
2023/06/15 06:49:29;;;;;;;6.25;4.30;;;22.30;82.40;;;;;;5072550;28;20324;-63
2023/06/15 06:51:55;;;;;;;4.72;3.70;;;22.30;80.50;;;;;;5073426;28;20270;-63
2023/06/15 06:54:20;;;;;;;7.68;3.65;;;22.10;81.40;;;;;;5076364;28;20220;-63
2023/06/15 06:56:46;;;;;;;5.65;3.70;;;22.20;81.60;;;;;;5076515;28;20171;-63
2023/06/15 06:59:12;;;;;;;4.40;3.45;;;22.40;81.80;;;;;;5076357;28;20213;-63
2023/06/15 07:01:38;;;;;;;4.65;3.90;;;22.70;81.30;;;;;;5076338;28;20218;-63
2023/06/15 07:04:04;;;;;;;5.93;3.67;;;22.70;80.00;;;;;;5076246;28;20206;-63
2023/06/15 07:06:30;;;;;;;5.53;3.33;;;22.70;78.30;;;;;;5076042;28;20206;-63
2023/06/15 07:08:55;;;;;;;4.43;3.53;;;22.90;80.60;;;;;;5076073;28;20702;-63
2023/06/15 07:11:21;;;;;;;4.90;3.70;;;23.00;79.40;;;;;;5076118;28;20178;-63
2023/06/15 07:13:47;;;;;;;5.53;2.83;;;22.90;79.40;;;;;;5076090;28;20199;-63
2023/06/15 07:16:12;;;;;;;7.28;3.10;;;22.90;79.80;;;;;;5075992;28;20179;-63
2023/06/15 07:18:38;;;;;;;4.57;3.20;;;23.20;81.60;;;;;;5075868;28;20175;-62
2023/06/15 07:21:04;;;;;;;3.17;2.88;;;23.20;79.20;;;;;;5075892;28;20206;-63
2023/06/15 07:23:29;;;;;;;3.28;2.97;;;23.30;79.40;;;;;;5075652;28;20171;-63
2023/06/15 07:25:55;;;;;;;7.60;2.80;;;23.40;78.70;;;;;;5075895;28;20229;-63
2023/06/15 07:28:20;;;;;;;3.65;2.50;;;23.50;79.10;;;;;;5075814;28;20170;-63
2023/06/15 07:30:49;;;;;;;3.20;2.88;;;23.80;77.10;;;;;;5075807;28;20698;-63
2023/06/15 07:33:15;;;;;;;5.40;2.75;;;24.00;78.70;;;;;;5075570;28;20541;-63
2023/06/15 07:35:41;;;;;;;3.50;2.80;;;24.00;76.60;;;;;;5075519;28;20658;-63
2023/06/15 07:38:07;;;;;;;4.63;2.83;;;24.10;76.90;;;;;;5075506;28;20178;-63
2023/06/15 07:40:33;;;;;;;4.97;2.60;;;24.20;77.40;;;;;;5075922;28;20186;-64
2023/06/15 07:42:59;;;;;;;3.20;2.90;;;24.50;78.20;;;;;;5075652;28;20183;-63
2023/06/15 07:45:24;;;;;;;5.70;3.00;;;24.40;75.90;;;;;;5075534;28;20232;-63
2023/06/15 07:47:50;;;;;;;3.25;2.42;;;24.60;77.10;;;;;;5075222;28;20234;-63
2023/06/15 07:50:16;;;;;;;4.70;2.70;;;24.80;75.70;;;;;;5075294;28;20241;-63
2023/06/15 07:52:41;;;;;;;2.78;2.45;;;24.70;77.10;;;;;;5075202;28;20596;-63
2023/06/15 07:55:07;;;;;;;3.35;2.63;;;24.90;76.30;;;;;;5075542;28;20204;-64
2023/06/15 07:57:34;;;;;;;3.28;2.22;;;24.90;73.70;;;;;;5075260;28;20650;-64
2023/06/15 08:00:01;;;;;;;3.88;2.78;;;25.10;75.10;;;;;;5075171;28;20190;-64
2023/06/15 08:02:26;;;;;;;4.20;2.10;;;25.30;75.20;;;;;;5074851;28;20647;-63
2023/06/15 08:04:52;;;;;;;3.17;2.72;;;25.30;74.60;;;;;;5075076;28;20182;-63
2023/06/15 08:07:18;;;;;;;7.80;2.70;;;25.30;74.80;;;;;;5074879;28;20183;-63
2023/06/15 08:09:43;;;;;;;3.70;2.60;;;25.30;74.50;;;;;;5074995;28;20210;-63
2023/06/15 08:12:10;;;;;;;5.95;2.60;;;25.30;75.40;;;;;;5074951;28;20179;-64
2023/06/15 08:14:38;;;;;;;2.40;2.20;;;25.50;74.10;;;;;;5074806;28;20181;-63
2023/06/15 08:17:04;;;;;;;4.07;2.33;;;25.60;74.00;;;;;;5074735;28;20174;-63
2023/06/15 08:19:30;;;;;;;3.88;2.10;;;25.70;73.90;;;;;;5074635;28;20202;-64
2023/06/15 08:21:56;;;;;;;3.78;2.30;;;25.90;74.40;;;;;;5074530;28;20206;-64
2023/06/15 08:24:22;;;;;;;3.25;2.22;;;25.90;72.10;;;;;;5074683;28;20175;-64
2023/06/15 08:26:48;;;;;;;3.97;2.50;;;26.00;73.00;;;;;;5074673;28;20205;-64
2023/06/15 08:29:14;;;;;;;5.57;2.40;;;26.10;73.60;;;;;;5074445;28;20245;-64
2023/06/15 08:31:40;;;;;;;4.03;2.58;;;26.30;72.90;;;;;;5074585;28;20175;-64
2023/06/15 08:34:09;;;;;;;2.67;2.25;;;26.20;73.40;;;;;;5073095;28;20191;-64
2023/06/15 08:36:36;;;;;;;3.25;2.45;;;26.40;72.80;;;;;;5074299;28;20659;-64
2023/06/15 08:39:03;;;;;;;5.93;2.58;;;26.30;71.50;;;;;;5074362;28;20651;-64
2023/06/15 08:41:30;;;;;;;5.38;2.40;;;26.30;70.30;;;;;;5074371;28;20273;-64
2023/06/15 08:43:56;;;;;;;4.57;2.30;;;26.40;71.10;;;;;;5074299;28;20253;-64
2023/06/15 08:46:24;;;;;;;4.43;2.72;;;26.30;72.40;;;;;;5074178;28;20174;-64
2023/06/15 08:48:52;;;;;;;3.13;2.63;;;26.50;71.90;;;;;;5074028;28;20234;-65
2023/06/15 08:51:19;;;;;;;4.13;2.28;;;26.50;71.20;;;;;;5074270;28;20167;-64
2023/06/15 08:53:46;;;;;;;3.53;2.47;;;26.70;72.00;;;;;;5074144;28;20179;-64
2023/06/15 08:56:12;;;;;;;7.53;3.03;;;26.70;70.50;;;;;;5074073;28;20171;-64
2023/06/15 08:58:39;;;;;;;5.25;3.35;;;26.60;71.30;;;;;;5073944;28;20654;-64
2023/06/15 09:01:06;;;;;;;4.68;2.28;;;26.80;71.30;;;;;;5073858;28;20181;-64
2023/06/15 09:03:33;;;;;;;5.97;2.63;;;26.90;71.20;;;;;;5073710;28;20170;-64
2023/06/15 09:05:59;;;;;;;5.93;2.75;;;26.90;69.70;;;;;;5073959;28;20217;-65
2023/06/15 09:08:25;;;;;;;2.78;2.10;;;26.90;72.00;;;;;;5073832;28;20207;-64
2023/06/15 09:11:04;;;;;;;5.85;2.30;;;26.80;69.30;;;;;;5073708;28;20687;-64
2023/06/15 09:13:33;;;;;;;5.15;2.40;;;27.00;69.90;;;;;;5073686;28;20239;-65
2023/06/15 09:16:00;;;;;;;3.13;2.38;;;27.20;70.70;;;;;;5072874;28;20177;-65
2023/06/15 09:18:26;;;;;;;4.15;2.17;;;27.00;69.90;;;;;;5073694;28;20177;-64
2023/06/15 09:20:52;;;;;;;4.22;2.47;;;27.00;68.50;;;;;;5073704;28;20171;-64
2023/06/15 09:23:18;;;;;;;4.47;2.40;;;26.90;67.30;;;;;;5073643;28;20175;-64
2023/06/15 09:25:54;;;;;;;5.80;2.58;;;26.90;69.30;;;;;;5073572;28;20182;-64
2023/06/15 09:28:22;;;;;;;4.47;2.38;;;26.90;69.70;;;;;;5073488;28;20174;-65
2023/06/15 09:30:53;;;;;;;4.63;2.50;;;27.10;69.40;;;;;;5073269;28;20222;-64
2023/06/15 09:33:20;;;;;;;2.70;2.45;;;27.20;68.70;;;;;;5073500;28;20171;-64
2023/06/15 09:36:02;;;;;;;3.08;2.42;;;27.30;67.40;;;;;;5073423;28;20174;-64
2023/06/15 09:38:36;;;;;;;3.88;2.17;;;27.20;68.70;;;;;;5073392;28;20273;-64
2023/06/15 09:41:06;;;;;;;3.63;2.25;;;27.30;67.80;;;;;;5073288;28;20232;-64
2023/06/15 09:43:34;;;;;;;5.93;2.33;;;27.30;69.10;;;;;;5073631;28;20170;-64
2023/06/15 09:46:01;;;;;;;3.63;2.30;;;27.40;68.30;;;;;;5073306;28;20178;-64
2023/06/15 09:48:30;;;;;;;5.80;2.67;;;27.60;68.30;;;;;;5073295;28;20236;-64
2023/06/15 09:51:01;;;;;;;4.70;2.38;;;27.40;67.60;;;;;;5073171;28;20225;-64
2023/06/15 09:53:30;;;;;;;5.82;2.22;;;27.50;67.40;;;;;;5073119;28;20182;-64
2023/06/15 09:55:57;;;;;;;4.70;2.33;;;27.60;67.90;;;;;;5073282;28;20261;-64
2023/06/15 09:58:23;;;;;;;3.80;2.35;;;27.60;66.40;;;;;;5073298;28;20174;-64
2023/06/15 10:00:49;;;;;;;7.75;2.67;;;27.40;65.30;;;;;;5073215;28;20186;-64
2023/06/15 10:03:21;;;;;;;3.45;2.30;;;27.50;66.00;;;;;;5073044;28;20535;-64
2023/06/15 10:05:54;;;;;;;4.25;2.50;;;27.60;65.90;;;;;;5073082;28;20602;-65
2023/06/15 10:08:25;;;;;;;4.47;2.60;;;27.60;67.40;;;;;;5072993;28;20247;-64
2023/06/15 10:10:51;;;;;;;2.65;2.30;;;27.60;64.80;;;;;;5073079;28;20222;-64
2023/06/15 10:13:29;;;;;;;5.35;2.70;;;27.80;64.60;;;;;;5072941;28;20250;-64
2023/06/15 10:15:57;;;;;;;4.70;2.38;;;27.90;64.00;;;;;;5073053;28;20177;-68
2023/06/15 10:18:24;;;;;;;6.78;2.80;;;28.00;65.10;;;;;;5072910;28;20175;-65
2023/06/15 10:20:52;;;;;;;3.38;2.42;;;28.00;66.10;;;;;;5072775;28;20211;-65
2023/06/15 10:23:25;;;;;;;5.50;2.63;;;28.30;65.70;;;;;;5073033;28;20601;-65
2023/06/15 10:25:53;;;;;;;6.93;2.55;;;28.30;65.10;;;;;;5073800;28;20659;-64
2023/06/15 10:28:23;;;;;;;3.13;2.40;;;28.40;65.70;;;;;;5076898;28;20179;-65
2023/06/15 10:31:16;;;;;;;5.47;2.60;;;28.00;64.70;;;;;;5076710;28;20210;-65
2023/06/15 10:34:13;;;;;;;3.83;2.53;;;28.40;66.70;;;;;;5076918;28;20198;-64
2023/06/15 10:36:57;;;;;;;5.63;2.50;;;28.30;65.80;;;;;;5076786;28;20170;-65
2023/06/15 10:39:26;;;;;;;4.80;2.60;;;28.50;64.60;;;;;;5076605;28;20171;-65
2023/06/15 10:41:55;;;;;;;3.45;2.75;;;28.50;63.50;;;;;;5076557;28;20179;-64
2023/06/15 10:44:21;;;;;;;3.38;2.38;;;28.40;63.00;;;;;;5076628;28;20182;-65
2023/06/15 10:46:46;;;;;;;5.85;2.78;;;28.40;62.90;;;;;;5076532;28;20170;-65
2023/06/15 10:49:13;;;;;;;4.30;2.53;;;28.20;62.60;;;;;;5076106;28;20288;-65
2023/06/15 10:51:50;;;;;;;3.22;2.78;;;28.40;64.10;;;;;;5076310;28;20509;-64
2023/06/15 10:54:23;;;;;;;4.07;2.78;;;28.30;62.40;;;;;;5076532;28;20185;-64
2023/06/15 10:56:50;;;;;;;4.80;2.35;;;28.10;64.50;;;;;;5076453;28;20183;-65
2023/06/15 10:59:43;;;;;;;7.18;2.70;;;28.10;63.20;;;;;;5076326;28;20231;-64
2023/06/15 11:02:32;;;;;;;5.22;2.00;;;28.10;62.70;;;;;;5076240;28;20624;-65
2023/06/15 11:05:03;;;;;;;3.83;2.80;;;28.00;63.10;;;;;;5076356;28;20632;-65
2023/06/15 11:07:34;;;;;;;2.97;2.50;;;28.10;64.30;;;;;;5076250;28;20175;-65
2023/06/15 11:10:23;;;;;;;4.60;2.50;;;28.10;64.30;;;;;;5076004;28;20203;-65
2023/06/15 11:13:05;;;;;;;3.80;2.47;;;28.10;63.00;;;;;;5066299;28;20524;-64
2023/06/15 11:15:35;;;;;;;5.20;2.75;;;28.10;62.60;;;;;;5076053;28;20225;-65
2023/06/15 11:18:04;;;;;;;2.60;2.35;;;28.30;63.20;;;;;;5075939;28;20254;-65
2023/06/15 11:20:38;;;;;;;4.82;2.80;;;28.40;62.40;;;;;;5075868;28;20748;-65
2023/06/15 11:23:16;;;;;;;6.80;2.45;;;28.30;63.80;;;;;;5075752;28;20170;-65
2023/06/15 11:25:54;;;;;;;3.97;2.70;;;28.10;61.70;;;;;;5076011;28;20177;-65
2023/06/15 11:28:22;;;;;;;2.88;2.58;;;28.30;62.20;;;;;;5075807;28;20205;-65
2023/06/15 11:31:08;;;;;;;5.35;2.60;;;28.40;63.10;;;;;;5075682;28;20663;-66
2023/06/15 11:33:36;;;;;;;5.80;2.78;;;27.50;61.30;;;;;;5075332;28;20190;-65
2023/06/15 11:36:10;;;;;;;4.35;2.63;;;27.30;63.70;;;;;;5075789;28;20177;-65
2023/06/15 11:38:36;;;;;;;4.35;2.65;;;27.50;64.00;;;;;;5074922;28;20658;-65
2023/06/15 11:41:07;;;;;;;4.75;2.70;;;27.70;65.00;;;;;;5075646;28;20239;-64
2023/06/15 11:43:37;;;;;;;5.35;2.50;;;28.10;64.90;;;;;;5075481;28;20175;-66
2023/06/15 11:46:02;;;;;;;7.47;2.58;;;28.40;63.30;;;;;;5075264;28;20170;-65
2023/06/15 11:48:29;;;;;;;4.05;2.38;;;28.70;63.00;;;;;;5075430;28;20230;-65
2023/06/15 11:50:56;;;;;;;3.75;2.60;;;28.80;61.60;;;;;;5075553;28;20209;-66
2023/06/15 11:53:21;;;;;;;6.55;2.92;;;28.80;61.00;;;;;;5075352;28;20177;-65
2023/06/15 11:55:47;;;;;;;7.00;2.53;;;29.00;63.20;;;;;;5075273;28;20167;-66
2023/06/15 11:58:13;;;;;;;4.50;2.80;;;29.10;64.10;;;;;;5075187;28;20171;-65
2023/06/15 12:00:40;;;;;;;4.75;2.67;;;29.50;62.10;;;;;;5075006;28;20214;-65
2023/06/15 12:03:12;;;;;;;4.95;2.60;;;29.60;62.30;;;;;;5075311;28;20520;-65
2023/06/15 12:05:38;;;;;;;5.95;2.70;;;29.50;62.60;;;;;;5075192;28;20166;-66
2023/06/15 12:08:06;;;;;;;4.43;2.78;;;29.00;61.60;;;;;;5075113;28;20175;-65
2023/06/15 12:10:40;;;;;;;5.95;2.55;;;29.20;62.20;;;;;;5075071;28;20217;-65
2023/06/15 12:13:11;;;;;;;3.15;2.85;;;29.20;61.50;;;;;;5074897;28;20527;-66
2023/06/15 12:15:47;;;;;;;14.75;3.20;;;28.80;62.00;;;;;;5075127;28;20162;-66
2023/06/15 12:18:15;;;;;;;4.13;2.55;;;29.10;63.00;;;;;;5075152;28;20174;-66
2023/06/15 12:20:44;;;;;;;2.75;2.40;;;29.20;61.30;;;;;;5074805;28;20269;-65
2023/06/15 12:23:10;;;;;;;6.10;2.65;;;29.20;59.90;;;;;;5074663;28;20171;-65
2023/06/15 12:25:44;;;;;;;4.65;2.75;;;29.40;60.80;;;;;;5074859;28;20171;-65
2023/06/15 12:28:14;;;;;;;3.08;2.60;;;29.40;59.80;;;;;;5074827;28;20703;-66
2023/06/15 12:30:40;;;;;;;3.40;2.80;;;29.50;61.60;;;;;;5073923;28;20210;-65
2023/06/15 12:33:22;;;;;;;6.30;2.72;;;28.80;60.20;;;;;;5073782;28;20235;-66
2023/06/15 12:35:50;;;;;;;2.70;2.20;;;28.40;60.10;;;;;;5073637;28;20258;-65
2023/06/15 12:38:16;;;;;;;4.10;2.30;;;28.40;61.00;;;;;;5073405;28;20628;-65
2023/06/15 12:40:45;;;;;;;4.45;2.40;;;28.40;60.20;;;;;;5072490;28;20189;-65
2023/06/15 12:43:11;;;;;;;7.82;2.80;;;28.60;61.80;;;;;;5073490;28;20286;-65
2023/06/15 12:45:37;;;;;;;4.35;2.67;;;28.80;62.50;;;;;;5073572;28;20668;-66
2023/06/15 12:48:04;;;;;;;4.68;2.72;;;28.80;60.60;;;;;;5073319;28;20229;-65
2023/06/15 12:50:30;;;;;;;3.67;2.33;;;28.50;60.60;;;;;;5072394;28;20222;-66